Terminal Aerodrome Forecast
Issued by NWS

Home | Current Version | Previous Version | Text Only | Print | Product List | Glossary On
Versions: 1 2 3 4 5 6 7 8 9 10 11 12 13 14 15 16 17 18 19 20 21 22 23 24 25
000
FTUS44 KOUN 301120
TAFGAG
TAF
KGAG 301120Z 3012/3112 35005KT P6SM VCSH BKN050
     FM302100 01003KT P6SM BKN100
      TEMPO 3021/3101 P6SM TS BKN050CB=

USA.gov is the U.S. government's official web portal to all federal, state and local government web resources and services.